Ammansville, Texas
Current Conditions -  °F | °C
As of 7:50 PM on Monday 22 Dec 2014 (Local Time) from K3T5 Reporting Station
Clear Clear  
Wind Chill: 58°   Ceiling: Unl
Heat Index: 58°   Visibility: 10mi
Dew Point: 56°   Wind: 0mph
Humidity: 93%   Direction: NA
Pressure: 29.63"   Gusts: NA
Location:  29.8569°N, 96.9311°W
Report Text: K3T5 230150Z AUTO 00000KT 10SM CLR 15/14 A2963 RMK AO2 T01470136
Loading
Personal Weather Stations






























Interactive Weather Map New forecast layout! Learn more

10-Day Weather Forecast

Advertisements
Track Severe Weather on mobile